createdAt,value
2022-09-05T00:00:19.634Z,3.40
2022-09-05T00:03:10.690Z,3.50
2022-09-05T00:06:02.990Z,3.40
2022-09-05T00:08:44.994Z,3.30
2022-09-05T00:11:42.448Z,3.30
2022-09-05T00:15:16.246Z,3.30
2022-09-05T00:22:57.767Z,3.20
2022-09-05T00:24:27.749Z,3.55
2022-09-05T00:24:32.630Z,3.45
2022-09-05T00:26:50.655Z,2.60
2022-09-05T00:30:07.981Z,2.80
2022-09-05T00:32:33.211Z,2.95
2022-09-05T00:35:21.244Z,2.72
2022-09-05T00:38:00.114Z,2.97
2022-09-05T00:40:34.700Z,2.97
2022-09-05T00:43:08.214Z,2.78
2022-09-05T00:45:41.064Z,2.92
2022-09-05T00:48:25.185Z,2.80
2022-09-05T00:51:17.645Z,2.80
2022-09-05T00:54:01.204Z,3.28
2022-09-05T00:56:48.415Z,2.30
2022-09-05T01:00:02.227Z,2.75
2022-09-05T01:02:51.252Z,2.45
2022-09-05T01:05:33.044Z,2.45
2022-09-05T01:08:18.435Z,2.55
2022-09-05T01:10:54.445Z,2.38
2022-09-05T01:13:36.574Z,2.45
2022-09-05T01:16:17.275Z,2.42
2022-09-05T01:19:00.775Z,2.63
2022-09-05T01:22:03.330Z,2.30
2022-09-05T01:24:54.864Z,2.40
2022-09-05T01:28:54.991Z,2.25
2022-09-05T01:30:47.747Z,2.40
2022-09-05T01:33:27.004Z,2.60
2022-09-05T01:36:12.594Z,2.20
2022-09-05T01:39:07.308Z,2.47
2022-09-05T01:41:46.274Z,2.40
2022-09-05T01:44:29.224Z,2.08
2022-09-05T01:47:09.640Z,2.38
2022-09-05T01:49:53.225Z,2.40
2022-09-05T01:52:32.684Z,2.15
2022-09-05T01:55:26.334Z,2.38
2022-09-05T01:58:03.424Z,1.92
2022-09-05T02:00:41.395Z,2.08
2022-09-05T02:03:20.127Z,2.00
2022-09-05T02:06:27.134Z,2.20
2022-09-05T02:09:07.205Z,2.28
2022-09-05T02:11:51.304Z,2.10
2022-09-05T02:14:34.158Z,2.13
2022-09-05T02:17:38.457Z,2.03
2022-09-05T02:20:14.204Z,2.10
2022-09-05T02:23:02.315Z,2.13
2022-09-05T02:26:02.538Z,2.60
2022-09-05T02:28:38.544Z,1.98
2022-09-05T02:31:19.670Z,2.40
2022-09-05T02:34:02.448Z,2.50
2022-09-05T02:36:38.248Z,2.30
2022-09-05T02:45:09.926Z,2.28
2022-09-05T02:45:24.586Z,1.73
2022-09-05T02:48:14.806Z,1.85
2022-09-05T02:54:24.070Z,1.50
2022-09-05T02:57:33.717Z,1.90
2022-09-05T02:57:46.033Z,2.25
2022-09-05T03:00:10.085Z,1.80
2022-09-05T03:02:56.862Z,2.10
2022-09-05T03:05:29.194Z,1.95
2022-09-05T03:08:14.945Z,1.70
2022-09-05T03:11:22.454Z,2.10
2022-09-05T03:14:28.044Z,2.00
2022-09-05T03:17:28.464Z,1.98
2022-09-05T03:20:24.286Z,1.83
2022-09-05T03:23:13.096Z,2.10
2022-09-05T03:26:13.814Z,1.83
2022-09-05T03:29:27.706Z,1.98
2022-09-05T03:32:40.324Z,1.77
2022-09-05T03:35:49.165Z,2.20
2022-09-05T03:38:50.355Z,1.77
2022-09-05T03:41:36.747Z,1.88
2022-09-05T03:44:25.225Z,1.77
2022-09-05T03:47:11.225Z,1.80
2022-09-05T03:54:12.180Z,1.80
2022-09-05T03:57:12.924Z,1.80
2022-09-05T03:59:25.895Z,1.55
2022-09-05T04:04:33.822Z,2.10
2022-09-05T04:08:13.866Z,1.73
2022-09-05T04:08:29.107Z,1.65
2022-09-05T04:10:51.607Z,1.92
2022-09-05T04:13:26.084Z,2.00
2022-09-05T04:16:08.470Z,1.70
2022-09-05T04:18:40.776Z,1.88
2022-09-05T04:21:16.265Z,1.40
2022-09-05T04:23:53.454Z,1.83
2022-09-05T04:26:40.274Z,1.80
2022-09-05T04:29:19.385Z,1.65
2022-09-05T04:32:17.788Z,1.92
2022-09-05T04:35:04.347Z,1.80
2022-09-05T04:37:48.660Z,2.00
2022-09-05T04:40:42.505Z,1.80
2022-09-05T04:43:20.844Z,2.15
2022-09-05T04:45:54.906Z,1.80
2022-09-05T04:48:29.714Z,1.75
2022-09-05T04:51:12.969Z,1.77
2022-09-05T04:54:01.830Z,1.63
2022-09-05T04:56:36.635Z,1.88
2022-09-05T05:03:08.368Z,1.63
2022-09-05T05:06:10.309Z,1.90
2022-09-05T05:06:12.389Z,1.80
2022-09-05T05:07:59.363Z,1.70
2022-09-05T05:15:55.226Z,1.60
2022-09-05T05:17:58.094Z,1.92
2022-09-05T05:18:06.383Z,1.98
2022-09-05T05:19:21.981Z,1.60
2022-09-05T05:21:55.237Z,1.60
2022-09-05T05:24:28.205Z,1.55
2022-09-05T05:27:05.445Z,1.80
2022-09-05T05:29:44.665Z,1.70
2022-09-05T05:32:31.646Z,1.58
2022-09-05T05:35:14.244Z,1.70
2022-09-05T05:37:46.915Z,1.30
2022-09-05T05:40:25.758Z,1.48
2022-09-05T05:43:15.405Z,1.52
2022-09-05T05:45:44.745Z,1.80
2022-09-05T05:48:32.014Z,1.70
2022-09-05T05:51:15.364Z,1.70
2022-09-05T05:53:52.518Z,1.52
2022-09-05T05:56:39.554Z,1.80
2022-09-05T05:59:33.986Z,1.60
2022-09-05T06:02:56.905Z,1.67
2022-09-05T06:06:00.486Z,1.52
2022-09-05T06:14:24.824Z,1.55
2022-09-05T06:15:02.369Z,1.43
2022-09-05T06:15:29.180Z,1.52
2022-09-05T06:18:29.904Z,1.40
2022-09-05T06:22:09.436Z,1.88
2022-09-05T06:25:16.778Z,2.40
2022-09-05T06:28:19.586Z,2.60
2022-09-05T06:31:30.732Z,2.63
2022-09-05T06:34:03.624Z,2.67
2022-09-05T06:36:49.154Z,2.55
2022-09-05T06:39:25.895Z,2.90
2022-09-05T06:42:30.662Z,2.65
2022-09-05T06:45:28.326Z,2.30
2022-09-05T06:48:06.274Z,2.75
2022-09-05T06:51:07.938Z,2.97
2022-09-05T06:53:59.552Z,3.50
2022-09-05T06:56:43.414Z,4.00
2022-09-05T06:59:45.464Z,3.80
2022-09-05T07:02:46.333Z,4.32
2022-09-05T07:05:38.530Z,4.15
2022-09-05T07:08:35.232Z,5.15
2022-09-05T07:11:15.848Z,4.35
2022-09-05T07:14:05.085Z,4.05
2022-09-05T07:16:47.514Z,4.20
2022-09-05T07:19:28.965Z,4.10
2022-09-05T07:22:22.817Z,3.90
2022-09-05T07:25:08.784Z,4.05
2022-09-05T07:27:42.022Z,4.07
2022-09-05T07:30:30.044Z,3.75
2022-09-05T07:33:00.647Z,4.50
2022-09-05T07:35:41.572Z,3.22
2022-09-05T07:38:16.565Z,3.63
2022-09-05T07:40:53.424Z,3.20
2022-09-05T07:43:26.693Z,3.33
2022-09-05T07:46:11.916Z,3.50
2022-09-05T07:48:44.874Z,3.47
2022-09-05T07:56:56.439Z,3.50
2022-09-05T07:57:01.957Z,3.38
2022-09-05T07:57:31.203Z,3.30
2022-09-05T08:00:07.224Z,3.00
2022-09-05T08:02:35.864Z,3.03
2022-09-05T08:05:05.843Z,3.15
2022-09-05T08:07:49.562Z,3.03
2022-09-05T08:10:35.586Z,3.00
2022-09-05T08:13:33.804Z,2.80
2022-09-05T08:16:13.762Z,2.92
2022-09-05T08:18:46.395Z,2.80
2022-09-05T08:21:27.641Z,3.00
2022-09-05T08:24:13.094Z,3.15
2022-09-05T08:26:47.496Z,2.65
2022-09-05T08:29:28.584Z,2.85
2022-09-05T08:32:06.824Z,2.90
2022-09-05T08:34:45.252Z,2.90
2022-09-05T08:37:21.135Z,2.70
2022-09-05T08:40:07.271Z,2.78
2022-09-05T08:42:58.740Z,2.67
2022-09-05T08:46:42.800Z,2.75
2022-09-05T08:48:45.684Z,2.30
2022-09-05T08:51:27.734Z,2.42
2022-09-05T08:54:10.645Z,2.92
2022-09-05T08:56:50.406Z,2.58
2022-09-05T09:00:11.994Z,2.45
2022-09-05T09:03:04.361Z,2.75
2022-09-05T09:06:13.459Z,2.58
2022-09-05T09:08:56.676Z,2.30
2022-09-05T09:11:34.463Z,2.30
2022-09-05T09:14:33.905Z,2.33
2022-09-05T09:17:11.235Z,2.13
2022-09-05T09:19:49.503Z,2.28
2022-09-05T09:22:31.056Z,2.28
2022-09-05T09:25:16.062Z,2.10
2022-09-05T09:28:47.884Z,2.75
2022-09-05T09:31:12.792Z,2.17
2022-09-05T09:33:48.674Z,1.98
2022-09-05T09:36:57.985Z,2.50
2022-09-05T09:39:43.089Z,2.03
2022-09-05T09:42:33.111Z,2.20
2022-09-05T09:45:33.524Z,2.25
2022-09-05T09:48:35.914Z,2.25
2022-09-05T09:51:23.034Z,2.10
2022-09-05T09:54:09.134Z,2.28
2022-09-05T09:59:54.639Z,2.83
2022-09-05T10:06:03.182Z,3.63
2022-09-05T10:10:35.821Z,4.85
2022-09-05T10:10:47.751Z,3.70
2022-09-05T10:12:01.870Z,4.55
2022-09-05T10:15:03.167Z,4.07
2022-09-05T10:18:09.925Z,4.80
2022-09-05T10:21:15.172Z,5.40
2022-09-05T10:24:09.244Z,5.75
2022-09-05T10:27:13.043Z,6.38
2022-09-05T10:29:56.234Z,7.13
2022-09-05T10:35:10.516Z,5.50
2022-09-05T10:35:23.686Z,6.18
2022-09-05T10:38:06.337Z,6.80
2022-09-05T10:40:46.376Z,4.88
2022-09-05T10:43:39.084Z,5.85
2022-09-05T10:46:49.049Z,5.93
2022-09-05T10:49:16.536Z,5.53
2022-09-05T10:51:53.974Z,5.95
2022-09-05T10:54:38.164Z,6.05
2022-09-05T10:57:28.724Z,5.72
2022-09-05T11:02:23.923Z,5.18
2022-09-05T11:03:00.880Z,5.35
2022-09-05T11:05:32.305Z,4.40
2022-09-05T11:08:11.376Z,5.25
2022-09-05T11:10:50.754Z,5.15
2022-09-05T11:13:36.984Z,4.43
2022-09-05T11:16:16.191Z,3.58
2022-09-05T11:19:02.434Z,3.80
2022-09-05T11:21:42.604Z,4.68
2022-09-05T11:24:27.466Z,4.20
2022-09-05T11:27:24.295Z,4.72
2022-09-05T11:29:52.540Z,3.95
2022-09-05T11:36:47.108Z,4.05
2022-09-05T11:39:59.643Z,4.30
2022-09-05T11:40:05.031Z,4.88
2022-09-05T11:42:16.115Z,5.60
2022-09-05T11:45:25.804Z,4.10
2022-09-05T11:48:22.422Z,4.90
2022-09-05T11:51:06.573Z,5.18
2022-09-05T11:53:58.834Z,3.50
2022-09-05T11:56:49.964Z,4.97
2022-09-05T12:00:31.795Z,5.18
2022-09-05T12:03:57.644Z,3.38
2022-09-05T12:06:30.515Z,4.72
2022-09-05T12:09:18.444Z,3.53
2022-09-05T12:12:06.465Z,4.13
2022-09-05T12:18:04.307Z,4.15
2022-09-05T12:20:58.345Z,4.03
2022-09-05T12:24:04.393Z,4.18
2022-09-05T12:27:38.661Z,3.90
2022-09-05T12:29:29.001Z,3.85
2022-09-05T12:36:07.080Z,3.83
2022-09-05T12:40:56.189Z,3.75
2022-09-05T12:41:43.409Z,3.47
2022-09-05T12:42:10.523Z,3.72
2022-09-05T12:44:38.263Z,3.88
2022-09-05T12:46:53.204Z,3.22
2022-09-05T12:49:36.103Z,3.38
2022-09-05T12:52:07.434Z,3.40
2022-09-05T12:54:45.684Z,3.65
2022-09-05T13:02:55.635Z,3.42
2022-09-05T13:03:07.649Z,3.70
2022-09-05T13:03:28.291Z,4.15
2022-09-05T13:06:04.321Z,3.30
2022-09-05T13:08:58.995Z,3.65
2022-09-05T13:14:50.219Z,3.50
2022-09-05T13:15:00.771Z,2.90
2022-09-05T13:17:15.837Z,3.33
2022-09-05T13:19:51.925Z,3.75
2022-09-05T13:22:24.284Z,3.40
2022-09-05T13:25:04.635Z,2.60
2022-09-05T13:27:40.994Z,2.50
2022-09-05T13:33:01.899Z,3.60
2022-09-05T13:37:56.039Z,3.20
2022-09-05T13:38:11.257Z,2.78
2022-09-05T13:39:07.318Z,4.35
2022-09-05T13:41:38.524Z,2.97
2022-09-05T13:44:26.962Z,3.10
2022-09-05T13:47:10.544Z,3.67
2022-09-05T13:50:05.190Z,3.00
2022-09-05T13:52:38.354Z,3.45
2022-09-05T13:55:21.444Z,3.40
2022-09-05T13:57:54.704Z,3.20
2022-09-05T14:01:02.530Z,3.17
2022-09-05T14:04:00.455Z,2.80
2022-09-05T14:10:17.025Z,2.50
2022-09-05T14:12:54.784Z,3.50
2022-09-05T14:15:41.604Z,3.05
2022-09-05T14:18:21.864Z,3.22
2022-09-05T14:21:14.454Z,2.60
2022-09-05T14:23:54.100Z,2.80
2022-09-05T14:26:32.395Z,2.97
2022-09-05T14:29:08.864Z,3.47
2022-09-05T14:37:34.411Z,2.90
2022-09-05T14:37:52.316Z,2.53
2022-09-05T14:38:09.500Z,3.20
2022-09-05T14:41:24.064Z,2.85
2022-09-05T14:44:30.795Z,3.50
2022-09-05T14:47:32.542Z,2.55
2022-09-05T14:50:29.624Z,3.65
2022-09-05T14:56:19.496Z,3.20
2022-09-05T15:02:44.985Z,3.40
2022-09-05T15:02:45.984Z,3.47
2022-09-05T15:04:44.591Z,3.45
2022-09-05T15:07:21.165Z,3.35
2022-09-05T15:12:14.425Z,3.47
2022-09-05T15:13:00.630Z,3.88
2022-09-05T15:15:32.895Z,3.45
2022-09-05T15:18:04.714Z,3.60
2022-09-05T15:20:37.664Z,3.40
2022-09-05T15:23:16.521Z,3.47
2022-09-05T15:25:48.994Z,3.63
2022-09-05T15:28:23.212Z,3.75
2022-09-05T15:31:00.317Z,3.63
2022-09-05T15:33:30.484Z,2.75
2022-09-05T15:36:01.902Z,2.83
2022-09-05T15:38:55.124Z,3.50
2022-09-05T15:41:24.424Z,4.03
2022-09-05T15:44:00.264Z,3.95
2022-09-05T15:46:57.426Z,3.65
2022-09-05T15:49:30.206Z,3.05
2022-09-05T15:52:04.206Z,3.50
2022-09-05T15:54:38.366Z,2.75
2022-09-05T15:57:17.478Z,3.00
2022-09-05T15:59:50.224Z,3.20
2022-09-05T16:02:22.263Z,3.05
2022-09-05T16:10:27.569Z,2.90
2022-09-05T16:10:41.914Z,3.38
2022-09-05T16:11:21.304Z,3.15
2022-09-05T16:13:53.111Z,3.30
2022-09-05T16:23:16.611Z,2.92
2022-09-05T16:23:16.999Z,3.10
2022-09-05T16:25:08.802Z,3.00
2022-09-05T16:27:53.974Z,3.03
2022-09-05T16:30:47.624Z,2.90
2022-09-05T16:33:19.644Z,3.08
2022-09-05T16:35:55.404Z,2.67
2022-09-05T16:38:48.684Z,2.45
2022-09-05T16:41:24.663Z,3.03
2022-09-05T16:43:58.284Z,3.17
2022-09-05T16:46:33.453Z,3.30
2022-09-05T16:49:12.116Z,2.45
2022-09-05T16:51:44.844Z,2.83
2022-09-05T16:54:17.894Z,2.78
2022-09-05T16:56:51.945Z,3.47
2022-09-05T16:59:23.288Z,3.30
2022-09-05T17:02:07.775Z,2.67
2022-09-05T17:05:04.059Z,2.75
2022-09-05T17:07:43.605Z,2.40
2022-09-05T17:10:17.075Z,2.97
2022-09-05T17:12:51.987Z,2.75
2022-09-05T17:15:23.964Z,2.47
2022-09-05T17:18:21.851Z,2.92
2022-09-05T17:20:51.973Z,2.80
2022-09-05T17:29:18.184Z,3.33
2022-09-05T17:29:25.750Z,2.88
2022-09-05T17:29:34.290Z,2.38
2022-09-05T17:32:00.102Z,3.03
2022-09-05T17:34:43.364Z,3.03
2022-09-05T17:37:43.694Z,2.80
2022-09-05T17:41:01.274Z,2.85
2022-09-05T17:43:33.306Z,3.00
2022-09-05T17:46:17.644Z,3.28
2022-09-05T17:49:18.289Z,3.25
2022-09-05T17:52:17.614Z,2.55
2022-09-05T17:54:50.001Z,3.13
2022-09-05T17:57:36.404Z,3.10
2022-09-05T18:00:47.518Z,3.10
2022-09-05T18:04:16.322Z,2.97
2022-09-05T18:06:59.320Z,3.08
2022-09-05T18:09:59.021Z,2.70
2022-09-05T18:13:14.101Z,3.15
2022-09-05T18:16:12.924Z,2.78
2022-09-05T18:19:28.517Z,3.15
2022-09-05T18:21:59.655Z,3.10
2022-09-05T18:24:40.464Z,3.10
2022-09-05T18:28:03.102Z,3.05
2022-09-05T18:33:53.323Z,3.38
2022-09-05T18:36:41.286Z,2.92
2022-09-05T18:39:47.709Z,3.42
2022-09-05T18:42:33.904Z,3.17
2022-09-05T18:45:16.137Z,3.08
2022-09-05T18:47:53.038Z,3.13
2022-09-05T18:50:32.108Z,3.13
2022-09-05T18:53:10.201Z,3.30
2022-09-05T18:56:13.400Z,3.42
2022-09-05T18:58:52.833Z,3.58
2022-09-05T19:01:28.762Z,3.28
2022-09-05T19:04:01.704Z,3.20
2022-09-05T19:06:38.004Z,3.47
2022-09-05T19:09:17.335Z,3.55
2022-09-05T19:11:57.874Z,3.08
2022-09-05T19:14:50.704Z,3.40
2022-09-05T19:17:28.131Z,3.80
2022-09-05T19:20:32.838Z,3.20
2022-09-05T19:23:09.970Z,3.33
2022-09-05T19:25:43.116Z,3.20
2022-09-05T19:34:18.494Z,3.20
2022-09-05T19:36:44.910Z,4.18
2022-09-05T19:36:55.467Z,3.08
2022-09-05T19:45:05.635Z,3.65
2022-09-05T19:47:26.678Z,3.17
2022-09-05T19:47:39.124Z,3.38
2022-09-05T19:51:16.464Z,3.45
2022-09-05T19:54:01.284Z,3.60
2022-09-05T19:56:40.529Z,3.50
2022-09-05T19:59:19.700Z,3.67
2022-09-05T20:01:52.088Z,3.50
2022-09-05T20:04:21.925Z,3.58
2022-09-05T20:06:51.775Z,3.70
2022-09-05T20:09:22.196Z,3.60
2022-09-05T20:11:58.301Z,4.10
2022-09-05T20:14:30.826Z,3.28
2022-09-05T20:17:25.755Z,3.20
2022-09-05T20:20:10.900Z,3.50
2022-09-05T20:22:48.857Z,3.30
2022-09-05T20:25:35.664Z,3.80
2022-09-05T20:28:10.268Z,3.33
2022-09-05T20:30:43.395Z,3.40
2022-09-05T20:33:19.982Z,3.67
2022-09-05T20:41:06.930Z,3.15
2022-09-05T20:43:20.295Z,3.40
2022-09-05T20:43:27.682Z,3.30
2022-09-05T20:44:50.255Z,3.85
2022-09-05T20:52:51.764Z,3.05
2022-09-05T20:54:06.711Z,3.03
2022-09-05T20:54:18.049Z,3.65
2022-09-05T20:56:11.565Z,3.40
2022-09-05T20:58:40.715Z,3.13
2022-09-05T21:01:19.591Z,3.60
2022-09-05T21:03:58.125Z,3.10
2022-09-05T21:06:33.926Z,3.35
2022-09-05T21:09:24.609Z,3.28
2022-09-05T21:11:54.545Z,3.47
2022-09-05T21:14:24.450Z,3.60
2022-09-05T21:17:01.135Z,3.85
2022-09-05T21:19:37.965Z,3.30
2022-09-05T21:22:11.086Z,3.25
2022-09-05T21:24:42.670Z,3.50
2022-09-05T21:27:17.266Z,3.50
2022-09-05T21:29:50.949Z,3.80
2022-09-05T21:32:37.961Z,3.72
2022-09-05T21:35:34.759Z,3.67
2022-09-05T21:38:05.586Z,3.22
2022-09-05T21:40:35.376Z,3.25
2022-09-05T21:47:35.736Z,3.78
2022-09-05T21:47:44.280Z,3.88
2022-09-05T21:48:48.171Z,3.45
2022-09-05T21:51:26.366Z,3.47
2022-09-05T21:59:14.322Z,3.20
2022-09-05T21:59:29.034Z,3.08
2022-09-05T21:59:50.078Z,3.72
2022-09-05T22:02:19.210Z,3.55
2022-09-05T22:04:47.916Z,3.17
2022-09-05T22:07:20.262Z,3.40
2022-09-05T22:10:03.626Z,3.50
2022-09-05T22:12:36.012Z,3.47
2022-09-05T22:15:27.350Z,4.07
2022-09-05T22:18:17.412Z,3.33
2022-09-05T22:21:34.045Z,3.17
2022-09-05T22:24:08.929Z,3.95
2022-09-05T22:27:12.267Z,3.42
2022-09-05T22:29:47.374Z,3.63
2022-09-05T22:32:28.574Z,3.42
2022-09-05T22:35:18.525Z,3.38
2022-09-05T22:38:09.645Z,3.63
2022-09-05T22:40:43.964Z,3.28
2022-09-05T22:43:14.924Z,3.47
2022-09-05T22:45:44.907Z,3.58
2022-09-05T22:48:16.876Z,3.95
2022-09-05T22:50:46.605Z,3.08
2022-09-05T22:53:16.886Z,3.80
2022-09-05T22:55:47.475Z,3.50
2022-09-05T22:58:18.404Z,3.95
2022-09-05T23:00:49.554Z,3.22
2022-09-05T23:03:19.455Z,3.50
2022-09-05T23:05:49.165Z,3.53
2022-09-05T23:08:19.884Z,3.67
2022-09-05T23:10:51.404Z,3.40
2022-09-05T23:13:23.745Z,3.92
2022-09-05T23:15:53.173Z,3.30
2022-09-05T23:18:22.712Z,3.50
2022-09-05T23:21:02.176Z,3.92
2022-09-05T23:23:46.124Z,3.47
2022-09-05T23:26:20.674Z,3.33
2022-09-05T23:28:51.414Z,3.50
2022-09-05T23:31:20.313Z,3.60
2022-09-05T23:33:48.888Z,3.67
2022-09-05T23:36:17.314Z,3.50
2022-09-05T23:38:45.954Z,3.97
2022-09-05T23:41:16.385Z,3.70
2022-09-05T23:43:45.154Z,3.15
2022-09-05T23:46:15.167Z,3.60
2022-09-05T23:48:43.773Z,3.70
2022-09-05T23:51:13.833Z,3.92
2022-09-05T23:53:42.413Z,3.35
2022-09-05T23:56:12.234Z,3.28
2022-09-05T23:58:40.823Z,4.30
